Time;durP1;ratioP1;P1;durP2;ratioP2;P2;SDS_P1;SDS_P2;PMS_P1;PMS_P2;Temp;Humidity;BMP_temperature;BMP_pressure;BME280_temperature;BME280_humidity;BME280_pressure;Samples;Min_cycle;Max_cycle;Signal;HPM_P1;HPM_P2
2022/03/24 00:01:19;;;;;;;;;51.00;40.00;;;;;;;;5017931;28;51898;-70
2022/03/24 00:03:46;;;;;;;;;45.50;37.75;;;;;;;;5025966;28;51119;-70
2022/03/24 00:06:12;;;;;;;;;46.00;39.75;;;;;;;;5017459;28;51402;-70
2022/03/24 00:08:37;;;;;;;;;45.75;38.75;;;;;;;;5026871;28;51017;-69
2022/03/24 00:11:02;;;;;;;;;46.00;38.25;;;;;;;;5017887;28;52182;-70
2022/03/24 00:13:27;;;;;;;;;45.25;38.00;;;;;;;;5014544;28;51139;-69
2022/03/24 00:15:53;;;;;;;;;43.25;37.00;;;;;;;;5017920;28;51192;-72
2022/03/24 00:18:18;;;;;;;;;48.50;38.75;;;;;;;;5018249;28;51097;-73
2022/03/24 00:20:43;;;;;;;;;44.25;37.75;;;;;;;;5016984;28;51144;-73
2022/03/24 00:23:09;;;;;;;;;40.00;34.25;;;;;;;;5019168;28;51147;-73
2022/03/24 00:25:34;;;;;;;;;45.00;38.25;;;;;;;;5017492;28;51148;-72
2022/03/24 00:28:00;;;;;;;;;41.50;36.25;;;;;;;;5014501;28;51102;-73
2022/03/24 00:30:25;;;;;;;;;47.00;39.00;;;;;;;;5014743;28;51627;-73
2022/03/24 00:32:50;;;;;;;;;51.50;40.25;;;;;;;;5010756;28;51126;-72
2022/03/24 00:35:16;;;;;;;;;42.25;37.00;;;;;;;;5025952;28;51115;-71
2022/03/24 00:37:41;;;;;;;;;44.50;38.50;;;;;;;;5005606;28;51306;-70
2022/03/24 00:40:07;;;;;;;;;42.50;37.75;;;;;;;;5014058;28;50857;-71
2022/03/24 00:42:35;;;;;;;;;45.25;39.50;;;;;;;;5012153;28;51089;-72
2022/03/24 00:45:01;;;;;;;;;43.25;38.00;;;;;;;;5012209;28;51372;-71
2022/03/24 00:47:26;;;;;;;;;43.50;36.00;;;;;;;;5013734;28;51114;-71
2022/03/24 00:49:52;;;;;;;;;46.00;38.50;;;;;;;;5010646;28;51815;-74
2022/03/24 00:52:17;;;;;;;;;41.75;37.00;;;;;;;;5013479;28;51045;-71
2022/03/24 00:54:42;;;;;;;;;39.25;34.75;;;;;;;;5050538;28;51368;-72
2022/03/24 00:57:07;;;;;;;;;43.00;37.25;;;;;;;;5008649;28;51074;-74
2022/03/24 00:59:33;;;;;;;;;42.50;35.25;;;;;;;;5006518;28;51907;-71
2022/03/24 01:01:59;;;;;;;;;46.00;39.00;;;;;;;;5013014;28;51017;-71
2022/03/24 01:04:24;;;;;;;;;47.25;38.00;;;;;;;;5013240;28;51386;-71
2022/03/24 01:06:49;;;;;;;;;43.75;38.00;;;;;;;;5013908;28;51180;-70
2022/03/24 01:09:14;;;;;;;;;47.75;38.50;;;;;;;;5012711;28;51121;-69
2022/03/24 01:11:40;;;;;;;;;46.00;38.00;;;;;;;;5011495;28;51255;-70
2022/03/24 01:14:07;;;;;;;;;47.75;39.00;;;;;;;;5019352;28;51015;-70
2022/03/24 01:16:33;;;;;;;;;46.00;37.25;;;;;;;;5009742;28;51228;-71
2022/03/24 01:18:58;;;;;;;;;40.00;35.75;;;;;;;;5011602;28;52357;-71
2022/03/24 01:21:24;;;;;;;;;43.00;37.25;;;;;;;;5011218;28;51663;-71
2022/03/24 01:23:49;;;;;;;;;44.50;36.75;;;;;;;;5018922;28;51054;-70
2022/03/24 01:26:15;;;;;;;;;46.00;38.00;;;;;;;;5008555;28;51235;-72
2022/03/24 01:28:41;;;;;;;;;41.50;36.50;;;;;;;;5003797;28;50910;-72
2022/03/24 01:31:08;;;;;;;;;46.25;36.50;;;;;;;;5007798;28;51247;-71
2022/03/24 01:33:34;;;;;;;;;43.75;34.75;;;;;;;;5011245;28;51233;-71
2022/03/24 01:35:59;;;;;;;;;46.75;38.75;;;;;;;;5012363;28;51006;-72
2022/03/24 01:38:25;;;;;;;;;44.75;37.25;;;;;;;;5007989;28;51810;-72
2022/03/24 01:40:51;;;;;;;;;42.75;36.50;;;;;;;;5012362;28;51115;-72
2022/03/24 01:43:17;;;;;;;;;44.50;36.00;;;;;;;;5009391;28;51006;-72
2022/03/24 01:45:43;;;;;;;;;41.75;38.25;;;;;;;;5007721;28;51801;-72
2022/03/24 01:48:08;;;;;;;;;38.00;34.75;;;;;;;;5010262;28;52238;-70
2022/03/24 01:50:34;;;;;;;;;40.25;34.50;;;;;;;;5006511;28;51132;-71
2022/03/24 01:52:59;;;;;;;;;36.50;34.50;;;;;;;;5008065;28;51116;-71
2022/03/24 01:55:24;;;;;;;;;39.75;36.75;;;;;;;;5009302;28;51085;-70
2022/03/24 01:57:50;;;;;;;;;41.00;36.75;;;;;;;;5008842;28;51247;-70
2022/03/24 02:00:15;;;;;;;;;41.50;36.75;;;;;;;;5003702;28;51242;-71
2022/03/24 02:02:41;;;;;;;;;31.75;30.75;;;;;;;;5012255;28;51059;-72
2022/03/24 02:05:07;;;;;;;;;43.25;37.50;;;;;;;;5008705;28;51120;-71
2022/03/24 02:07:32;;;;;;;;;41.50;36.25;;;;;;;;5012117;28;51822;-72
2022/03/24 02:09:59;;;;;;;;;39.25;34.75;;;;;;;;5004032;28;51080;-72
2022/03/24 02:12:25;;;;;;;;;46.50;37.75;;;;;;;;5006549;28;52671;-71
2022/03/24 02:14:52;;;;;;;;;43.00;37.50;;;;;;;;5003313;28;54976;-71
2022/03/24 02:17:19;;;;;;;;;46.75;37.75;;;;;;;;5008393;28;54832;-71
2022/03/24 02:19:45;;;;;;;;;43.00;36.00;;;;;;;;5008666;28;51122;-71
2022/03/24 02:22:13;;;;;;;;;41.25;37.50;;;;;;;;5018292;28;51086;-71
2022/03/24 02:24:39;;;;;;;;;43.50;38.75;;;;;;;;5009826;28;51253;-70
2022/03/24 02:27:04;;;;;;;;;47.00;39.25;;;;;;;;5010475;28;51707;-72
2022/03/24 02:29:29;;;;;;;;;48.25;41.00;;;;;;;;5015874;28;51112;-72
2022/03/24 02:31:55;;;;;;;;;48.75;40.25;;;;;;;;5004117;28;51247;-72
2022/03/24 02:37:12;;;;;;;;;40.25;36.00;;;;;;;;5007403;28;50958;-72
2022/03/24 02:39:41;;;;;;;;;45.75;38.00;;;;;;;;5011137;28;51183;-72
2022/03/24 02:42:09;;;;;;;;;44.25;35.75;;;;;;;;5009342;28;51936;-72
2022/03/24 02:44:35;;;;;;;;;40.75;35.75;;;;;;;;5015522;28;51159;-72
2022/03/24 02:47:01;;;;;;;;;44.50;38.75;;;;;;;;5009528;28;51597;-72
2022/03/24 02:49:30;;;;;;;;;44.50;37.00;;;;;;;;5003944;28;51131;-71
2022/03/24 02:51:58;;;;;;;;;46.00;38.00;;;;;;;;5012141;28;51358;-72
2022/03/24 02:54:23;;;;;;;;;42.50;38.00;;;;;;;;5003914;28;51534;-71
2022/03/24 02:56:48;;;;;;;;;44.75;37.75;;;;;;;;5001839;28;51704;-73
2022/03/24 02:59:14;;;;;;;;;38.25;35.00;;;;;;;;5005849;28;51432;-72
2022/03/24 03:01:45;;;;;;;;;38.25;34.75;;;;;;;;5006188;28;51393;-72
2022/03/24 03:04:12;;;;;;;;;44.00;39.25;;;;;;;;5008175;28;51190;-72
2022/03/24 03:06:38;;;;;;;;;40.50;36.00;;;;;;;;5003020;28;52029;-73
2022/03/24 03:09:03;;;;;;;;;43.75;38.25;;;;;;;;5009273;28;51086;-72
2022/03/24 03:11:32;;;;;;;;;39.50;34.50;;;;;;;;5003752;28;51111;-73
2022/03/24 03:13:58;;;;;;;;;41.75;36.00;;;;;;;;5006519;28;51135;-72
2022/03/24 03:16:24;;;;;;;;;50.00;38.50;;;;;;;;5013464;28;51159;-71
2022/03/24 03:18:49;;;;;;;;;43.25;37.75;;;;;;;;5009360;28;50978;-71
2022/03/24 03:21:16;;;;;;;;;43.25;36.50;;;;;;;;5008666;28;51206;-72
2022/03/24 03:23:41;;;;;;;;;42.50;36.25;;;;;;;;5015045;28;51059;-73
2022/03/24 03:26:07;;;;;;;;;40.75;30.75;;;;;;;;4997587;28;53241;-73
2022/03/24 03:28:33;;;;;;;;;42.50;37.00;;;;;;;;5004611;28;51106;-72
2022/03/24 03:30:58;;;;;;;;;44.25;38.00;;;;;;;;5011172;28;52048;-73
2022/03/24 03:33:23;;;;;;;;;45.00;39.50;;;;;;;;5011628;28;51240;-72
2022/03/24 03:35:49;;;;;;;;;41.75;37.25;;;;;;;;5005373;28;53358;-71
2022/03/24 03:38:14;;;;;;;;;12.25;10.75;;;;;;;;5007163;28;52560;-72
2022/03/24 03:40:39;;;;;;;;;39.75;35.75;;;;;;;;5008947;28;51483;-73
2022/03/24 03:43:05;;;;;;;;;38.75;36.00;;;;;;;;5005750;28;51049;-71
2022/03/24 03:45:30;;;;;;;;;40.50;36.50;;;;;;;;5010143;28;51938;-72
2022/03/24 03:47:55;;;;;;;;;38.25;35.25;;;;;;;;5007890;28;51198;-73
2022/03/24 03:50:21;;;;;;;;;48.25;39.00;;;;;;;;5003752;28;51302;-71
2022/03/24 03:52:46;;;;;;;;;39.25;35.75;;;;;;;;5025064;28;51237;-72
2022/03/24 03:55:12;;;;;;;;;42.25;37.00;;;;;;;;5010285;28;51156;-73
2022/03/24 03:57:37;;;;;;;;;44.50;39.25;;;;;;;;5008665;28;51354;-71
2022/03/24 04:02:53;;;;;;;;;43.50;36.00;;;;;;;;5009098;28;51066;-71
2022/03/24 04:05:24;;;;;;;;;45.50;38.50;;;;;;;;4999439;28;51902;-71
2022/03/24 04:07:50;;;;;;;;;42.50;37.00;;;;;;;;5007789;28;51304;-72
2022/03/24 04:10:15;;;;;;;;;48.25;38.25;;;;;;;;5004958;28;51348;-71
2022/03/24 04:12:42;;;;;;;;;47.75;38.75;;;;;;;;5008418;28;50894;-72
2022/03/24 04:15:07;;;;;;;;;39.25;35.75;;;;;;;;5007728;28;51151;-72
2022/03/24 04:17:32;;;;;;;;;42.25;37.00;;;;;;;;5013434;28;51055;-72
2022/03/24 04:19:57;;;;;;;;;41.25;37.50;;;;;;;;5020507;28;51208;-72
2022/03/24 04:22:23;;;;;;;;;47.00;37.25;;;;;;;;5009869;28;51305;-71
2022/03/24 04:24:49;;;;;;;;;45.75;37.00;;;;;;;;5019040;28;53555;-73
2022/03/24 04:27:14;;;;;;;;;44.00;38.75;;;;;;;;5022715;28;51482;-73
2022/03/24 04:29:39;;;;;;;;;42.25;37.00;;;;;;;;5011821;28;51222;-72
2022/03/24 04:32:05;;;;;;;;;45.50;39.25;;;;;;;;5013557;28;51474;-71
2022/03/24 04:34:30;;;;;;;;;43.50;37.50;;;;;;;;5039623;28;53652;-72
2022/03/24 04:36:56;;;;;;;;;43.75;38.50;;;;;;;;5010336;28;51089;-74
2022/03/24 04:39:21;;;;;;;;;51.00;39.25;;;;;;;;5013949;28;51076;-72
2022/03/24 04:41:46;;;;;;;;;48.00;40.75;;;;;;;;5014734;28;51221;-73
2022/03/24 04:44:11;;;;;;;;;40.00;36.00;;;;;;;;5006860;28;52230;-72
2022/03/24 04:46:36;;;;;;;;;46.00;38.00;;;;;;;;5013757;28;51228;-72
2022/03/24 04:49:02;;;;;;;;;43.50;38.50;;;;;;;;5021646;28;51141;-72
2022/03/24 04:51:27;;;;;;;;;44.00;37.75;;;;;;;;5015809;28;51342;-73
2022/03/24 04:53:53;;;;;;;;;43.00;36.75;;;;;;;;5021588;28;51975;-71
2022/03/24 04:56:18;;;;;;;;;47.00;39.50;;;;;;;;5017947;28;51457;-71
2022/03/24 04:58:44;;;;;;;;;44.50;38.50;;;;;;;;5014132;28;51154;-72
2022/03/24 05:01:09;;;;;;;;;50.25;41.00;;;;;;;;5014408;28;50958;-71
2022/03/24 05:03:34;;;;;;;;;47.00;39.75;;;;;;;;5014757;28;51597;-72
2022/03/24 05:05:59;;;;;;;;;44.00;38.50;;;;;;;;5006238;28;51174;-72
2022/03/24 05:08:24;;;;;;;;;37.50;35.50;;;;;;;;5012915;28;51331;-72
2022/03/24 05:10:50;;;;;;;;;46.75;40.00;;;;;;;;5014153;28;51301;-72
2022/03/24 05:13:15;;;;;;;;;42.25;37.25;;;;;;;;5012291;28;51029;-72
2022/03/24 05:15:40;;;;;;;;;38.50;35.75;;;;;;;;5045955;28;51603;-71
2022/03/24 05:18:05;;;;;;;;;39.25;36.75;;;;;;;;5014122;28;51637;-72
2022/03/24 05:20:31;;;;;;;;;44.75;40.00;;;;;;;;5016143;28;51484;-72
2022/03/24 05:22:56;;;;;;;;;52.00;41.75;;;;;;;;5000930;28;51103;-73
2022/03/24 05:25:21;;;;;;;;;47.00;38.25;;;;;;;;5009696;28;51175;-72
2022/03/24 05:27:47;;;;;;;;;45.50;37.75;;;;;;;;5042434;28;51234;-72
2022/03/24 05:30:12;;;;;;;;;43.00;37.75;;;;;;;;5008377;28;51205;-72
2022/03/24 05:32:40;;;;;;;;;46.00;38.75;;;;;;;;5010799;28;51138;-72
2022/03/24 05:35:05;;;;;;;;;44.75;37.25;;;;;;;;5017798;28;51205;-72
2022/03/24 05:37:30;;;;;;;;;48.75;39.25;;;;;;;;5003499;28;51164;-72
2022/03/24 05:39:55;;;;;;;;;51.75;40.25;;;;;;;;5008328;28;51336;-73
2022/03/24 05:42:21;;;;;;;;;40.00;36.50;;;;;;;;5009040;28;52574;-72
2022/03/24 05:44:46;;;;;;;;;44.75;39.75;;;;;;;;5008152;28;51277;-72
2022/03/24 05:47:11;;;;;;;;;42.50;37.00;;;;;;;;5008506;28;51073;-71
2022/03/24 05:49:38;;;;;;;;;39.00;36.00;;;;;;;;5002487;28;51124;-72
2022/03/24 05:52:03;;;;;;;;;41.00;37.00;;;;;;;;5009359;28;51678;-72
2022/03/24 05:54:29;;;;;;;;;45.50;38.00;;;;;;;;5007347;28;51712;-73
2022/03/24 05:56:54;;;;;;;;;34.75;32.75;;;;;;;;5010062;28;51180;-72
2022/03/24 05:59:19;;;;;;;;;44.00;37.50;;;;;;;;5009148;28;52603;-72
2022/03/24 06:01:46;;;;;;;;;43.50;37.50;;;;;;;;5005619;28;52830;-72
2022/03/24 06:04:13;;;;;;;;;56.00;44.50;;;;;;;;5011327;28;51312;-72
2022/03/24 06:06:39;;;;;;;;;40.75;36.00;;;;;;;;5012128;28;51033;-73
2022/03/24 06:09:05;;;;;;;;;48.50;40.00;;;;;;;;4999760;28;51203;-72
2022/03/24 06:11:31;;;;;;;;;43.00;34.25;;;;;;;;5015107;28;51765;-72
2022/03/24 06:13:56;;;;;;;;;45.50;36.25;;;;;;;;5006020;28;51353;-73
2022/03/24 06:16:22;;;;;;;;;51.50;39.50;;;;;;;;5010403;28;51096;-73
2022/03/24 06:18:47;;;;;;;;;50.75;41.25;;;;;;;;5010785;28;51180;-73
2022/03/24 06:21:14;;;;;;;;;35.50;33.50;;;;;;;;5007868;28;51229;-72
2022/03/24 06:23:39;;;;;;;;;47.00;39.00;;;;;;;;5015754;28;51049;-72
2022/03/24 06:26:04;;;;;;;;;45.50;36.50;;;;;;;;5007411;28;51132;-72
2022/03/24 06:28:30;;;;;;;;;42.75;37.25;;;;;;;;5012758;28;51271;-73
2022/03/24 06:30:55;;;;;;;;;43.75;37.25;;;;;;;;5005937;28;51740;-73
2022/03/24 06:33:20;;;;;;;;;48.75;40.75;;;;;;;;5007868;28;51189;-74
2022/03/24 06:35:46;;;;;;;;;44.00;37.75;;;;;;;;5006225;28;51144;-72
2022/03/24 06:38:13;;;;;;;;;45.00;38.25;;;;;;;;5010339;28;50958;-72
2022/03/24 06:40:39;;;;;;;;;47.50;37.50;;;;;;;;5006564;28;54050;-73
2022/03/24 06:43:06;;;;;;;;;47.50;38.75;;;;;;;;5008414;28;51167;-72
2022/03/24 06:45:31;;;;;;;;;42.75;36.00;;;;;;;;5006081;28;51322;-72
2022/03/24 06:47:57;;;;;;;;;46.25;40.00;;;;;;;;5009673;28;51072;-73
2022/03/24 06:50:24;;;;;;;;;44.25;37.25;;;;;;;;5007985;28;52074;-72
2022/03/24 06:52:50;;;;;;;;;43.25;38.25;;;;;;;;5007139;28;50933;-73
2022/03/24 06:55:16;;;;;;;;;48.00;38.75;;;;;;;;5033294;28;52550;-72
2022/03/24 06:57:41;;;;;;;;;47.00;39.50;;;;;;;;5001482;28;51250;-73
2022/03/24 07:00:07;;;;;;;;;53.00;42.25;;;;;;;;5005240;28;52829;-72
2022/03/24 07:02:32;;;;;;;;;50.00;40.25;;;;;;;;5005813;28;51448;-71
2022/03/24 07:04:57;;;;;;;;;46.75;38.25;;;;;;;;4996104;28;51948;-72
2022/03/24 07:07:23;;;;;;;;;46.50;39.00;;;;;;;;5009978;28;51383;-73
2022/03/24 07:09:48;;;;;;;;;48.00;39.50;;;;;;;;5004209;28;52599;-71
2022/03/24 07:12:17;;;;;;;;;47.50;39.75;;;;;;;;4996410;28;52183;-72
2022/03/24 07:14:42;;;;;;;;;47.00;38.75;;;;;;;;5007086;28;51151;-71
2022/03/24 07:17:08;;;;;;;;;41.00;35.50;;;;;;;;5005308;28;51257;-71
2022/03/24 07:19:33;;;;;;;;;48.00;40.25;;;;;;;;5016885;28;52103;-71
2022/03/24 07:22:01;;;;;;;;;50.00;41.50;;;;;;;;5010243;28;51094;-71
2022/03/24 07:24:27;;;;;;;;;42.50;36.50;;;;;;;;5000272;28;51053;-70
2022/03/24 07:26:52;;;;;;;;;47.50;40.25;;;;;;;;4998443;28;51462;-69
2022/03/24 07:29:17;;;;;;;;;52.25;40.75;;;;;;;;5004063;28;52695;-68
2022/03/24 07:31:42;;;;;;;;;45.75;39.00;;;;;;;;5009440;28;51169;-68
2022/03/24 07:34:08;;;;;;;;;46.25;38.25;;;;;;;;5017225;28;51494;-68
2022/03/24 07:36:33;;;;;;;;;42.50;36.75;;;;;;;;5007378;28;51185;-69
2022/03/24 07:38:59;;;;;;;;;44.75;38.50;;;;;;;;5009115;28;51969;-69
2022/03/24 07:41:25;;;;;;;;;45.75;38.50;;;;;;;;5015795;28;51786;-69
2022/03/24 07:43:50;;;;;;;;;46.25;39.25;;;;;;;;5038174;28;51030;-69
2022/03/24 07:46:15;;;;;;;;;39.25;35.00;;;;;;;;5010000;28;51134;-69
2022/03/24 07:48:46;;;;;;;;;45.25;38.75;;;;;;;;5014190;28;51046;-67
2022/03/24 07:51:11;;;;;;;;;44.25;36.75;;;;;;;;5015327;28;50956;-68
2022/03/24 07:53:48;;;;;;;;;44.50;37.00;;;;;;;;5012272;28;50947;-68
2022/03/24 07:56:25;;;;;;;;;45.00;37.75;;;;;;;;5021913;28;51101;-69
2022/03/24 07:58:54;;;;;;;;;45.75;38.00;;;;;;;;5013394;28;51017;-70
2022/03/24 08:01:30;;;;;;;;;47.00;38.50;;;;;;;;5014381;28;51200;-68
2022/03/24 08:03:57;;;;;;;;;45.00;38.50;;;;;;;;5016190;28;51190;-72
2022/03/24 08:06:23;;;;;;;;;41.75;34.50;;;;;;;;5045663;28;51016;-67
2022/03/24 08:08:48;;;;;;;;;45.50;38.50;;;;;;;;5010618;28;52630;-67
2022/03/24 08:11:13;;;;;;;;;47.50;40.00;;;;;;;;5012894;28;51330;-68
2022/03/24 08:13:38;;;;;;;;;44.00;37.50;;;;;;;;5017787;28;51091;-68
2022/03/24 08:16:05;;;;;;;;;47.75;38.75;;;;;;;;5015820;28;51357;-68
2022/03/24 08:18:30;;;;;;;;;47.75;40.25;;;;;;;;5011775;28;51153;-69
2022/03/24 08:20:55;;;;;;;;;45.00;38.75;;;;;;;;5014203;28;51528;-69
2022/03/24 08:23:21;;;;;;;;;47.25;39.75;;;;;;;;5015358;28;51418;-69
2022/03/24 08:25:46;;;;;;;;;48.50;40.50;;;;;;;;5009102;28;51237;-69
2022/03/24 08:28:14;;;;;;;;;46.25;37.50;;;;;;;;5012120;28;51739;-68
2022/03/24 08:30:44;;;;;;;;;51.50;40.50;;;;;;;;5012747;28;51176;-69
2022/03/24 08:33:13;;;;;;;;;49.50;40.75;;;;;;;;5010931;28;51092;-70
2022/03/24 08:35:39;;;;;;;;;45.25;37.50;;;;;;;;5045206;28;51207;-70
2022/03/24 08:38:04;;;;;;;;;45.25;36.75;;;;;;;;5012884;28;51993;-68
2022/03/24 08:40:30;;;;;;;;;46.25;37.25;;;;;;;;5004291;28;51217;-68
2022/03/24 08:42:55;;;;;;;;;50.50;41.75;;;;;;;;5011900;28;51182;-69
2022/03/24 08:45:21;;;;;;;;;49.25;40.75;;;;;;;;5009696;28;51069;-67
2022/03/24 08:47:46;;;;;;;;;48.00;40.00;;;;;;;;5011709;28;52055;-67
2022/03/24 08:50:12;;;;;;;;;47.00;39.25;;;;;;;;5012450;28;50997;-68
2022/03/24 08:52:38;;;;;;;;;41.25;35.50;;;;;;;;5016526;28;51100;-69
2022/03/24 08:55:05;;;;;;;;;46.50;38.75;;;;;;;;5014183;28;51419;-67
2022/03/24 08:57:31;;;;;;;;;49.00;40.50;;;;;;;;5012778;28;52782;-67
2022/03/24 08:59:57;;;;;;;;;48.50;40.25;;;;;;;;5013955;28;50986;-68
2022/03/24 09:02:22;;;;;;;;;48.75;40.75;;;;;;;;5010422;28;51073;-66
2022/03/24 09:04:48;;;;;;;;;50.75;40.50;;;;;;;;5023490;28;51356;-66
2022/03/24 09:07:13;;;;;;;;;48.00;39.50;;;;;;;;5014289;28;51101;-67
2022/03/24 09:09:40;;;;;;;;;43.50;36.50;;;;;;;;5014107;28;50997;-66
2022/03/24 09:12:05;;;;;;;;;43.00;35.50;;;;;;;;5014116;28;51136;-66
2022/03/24 09:14:31;;;;;;;;;41.75;36.00;;;;;;;;5007963;28;51112;-66
2022/03/24 09:16:56;;;;;;;;;44.50;36.25;;;;;;;;5013510;28;51796;-67
2022/03/24 09:19:22;;;;;;;;;45.00;37.75;;;;;;;;5015040;28;51209;-68
2022/03/24 09:21:48;;;;;;;;;44.50;37.50;;;;;;;;5012798;28;50872;-67
2022/03/24 09:24:13;;;;;;;;;44.50;37.00;;;;;;;;5012896;28;51274;-67
2022/03/24 09:26:39;;;;;;;;;42.50;36.00;;;;;;;;5011470;28;52243;-67
2022/03/24 09:29:04;;;;;;;;;37.25;33.50;;;;;;;;5012813;28;51143;-66
2022/03/24 09:31:29;;;;;;;;;42.75;36.75;;;;;;;;5011657;28;51354;-67
2022/03/24 09:33:54;;;;;;;;;41.00;35.50;;;;;;;;5023007;28;51245;-68
2022/03/24 09:36:20;;;;;;;;;44.25;37.25;;;;;;;;5011654;28;51995;-67
2022/03/24 09:38:45;;;;;;;;;42.25;36.75;;;;;;;;5022582;28;51136;-66
2022/03/24 09:41:12;;;;;;;;;47.75;39.00;;;;;;;;5022314;28;51158;-68
2022/03/24 09:43:38;;;;;;;;;45.00;37.75;;;;;;;;5013425;28;51096;-68
2022/03/24 09:46:03;;;;;;;;;36.50;32.00;;;;;;;;5023693;28;52020;-67
2022/03/24 09:48:28;;;;;;;;;43.00;35.25;;;;;;;;5012806;28;51057;-69
2022/03/24 09:50:54;;;;;;;;;46.75;40.00;;;;;;;;5049908;28;51473;-69
2022/03/24 09:53:23;;;;;;;;;47.75;39.75;;;;;;;;5015484;28;51375;-68
2022/03/24 09:55:49;;;;;;;;;44.50;37.50;;;;;;;;5012389;28;51045;-68
2022/03/24 09:58:14;;;;;;;;;46.75;39.00;;;;;;;;5012402;28;51650;-69
2022/03/24 10:00:39;;;;;;;;;45.25;38.00;;;;;;;;5011190;28;51010;-68
2022/03/24 10:03:05;;;;;;;;;43.25;37.25;;;;;;;;5007127;28;51084;-68
2022/03/24 10:05:31;;;;;;;;;51.00;40.75;;;;;;;;5011414;28;52066;-67
2022/03/24 10:08:02;;;;;;;;;48.00;40.00;;;;;;;;5012347;28;51167;-68
2022/03/24 10:10:34;;;;;;;;;50.50;41.00;;;;;;;;5012334;28;51068;-68
2022/03/24 10:12:59;;;;;;;;;47.00;39.00;;;;;;;;5011473;28;51967;-67
2022/03/24 10:15:25;;;;;;;;;48.25;40.50;;;;;;;;5009914;28;54014;-67
2022/03/24 10:17:51;;;;;;;;;44.75;38.00;;;;;;;;5012290;28;51177;-67
2022/03/24 10:20:17;;;;;;;;;46.00;38.25;;;;;;;;5012683;28;51004;-67
2022/03/24 10:22:52;;;;;;;;;44.50;37.25;;;;;;;;5012739;28;50890;-67
2022/03/24 10:25:27;;;;;;;;;49.00;40.25;;;;;;;;5012514;28;51090;-66
2022/03/24 10:28:06;;;;;;;;;49.25;42.25;;;;;;;;5003012;28;51225;-68
2022/03/24 10:30:45;;;;;;;;;57.00;45.75;;;;;;;;5002944;28;52759;-69
2022/03/24 10:33:24;;;;;;;;;42.00;35.50;;;;;;;;5004433;28;51108;-70
2022/03/24 10:35:49;;;;;;;;;49.25;40.50;;;;;;;;4996809;28;51719;-71
2022/03/24 10:38:15;;;;;;;;;53.00;43.75;;;;;;;;5000765;28;51239;-69
2022/03/24 10:40:40;;;;;;;;;51.00;42.25;;;;;;;;5000945;28;51333;-71
2022/03/24 10:43:21;;;;;;;;;49.25;40.50;;;;;;;;5036505;28;51272;-71
2022/03/24 10:45:46;;;;;;;;;48.25;39.25;;;;;;;;5002473;28;51284;-70
2022/03/24 10:48:12;;;;;;;;;48.50;40.25;;;;;;;;5004357;28;51713;-71
2022/03/24 10:50:39;;;;;;;;;50.00;39.50;;;;;;;;5003035;28;51199;-70
2022/03/24 10:53:05;;;;;;;;;45.75;38.25;;;;;;;;5003138;28;51330;-70
2022/03/24 10:55:39;;;;;;;;;50.25;42.00;;;;;;;;5007637;28;51184;-70
2022/03/24 10:58:07;;;;;;;;;48.75;40.50;;;;;;;;5003901;28;51309;-71
2022/03/24 11:00:32;;;;;;;;;44.50;38.00;;;;;;;;5003083;28;51432;-61
2022/03/24 11:05:39;;;;;;;;;44.00;38.00;;;;;;;;3280610;28;211429808;-60
2022/03/24 11:08:05;;;;;;;;;42.00;36.00;;;;;;;;5038581;28;13491;-59
2022/03/24 11:10:33;;;;;;;;;47.75;39.50;;;;;;;;5073622;28;8781;-60
2022/03/24 11:15:39;;;;;;;;;;;;;;;;;;2444527;28;220422608;-63
2022/03/24 11:18:07;;;;;;;;;39.50;33.25;;;;;;;;4468414;28;9012933;-62
2022/03/24 11:20:37;;;;;;;;;38.75;32.50;;;;;;;;4888911;28;4357181;-63
2022/03/24 11:23:09;;;;;;;;;29.50;29.00;;;;;;;;3999965;28;16362003;-61
2022/03/24 11:25:45;;;;;;;;;;;;;;;;;;3133129;28;64225287;-69
2022/03/24 11:28:14;;;;;;;;;36.00;32.75;;;;;;;;3927924;28;20413947;-66
2022/03/24 11:30:40;;;;;;;;;45.00;36.75;;;;;;;;5039902;28;8825;-66
2022/03/24 11:33:05;;;;;;;;;42.25;33.75;;;;;;;;5040346;28;10900;-64
2022/03/24 11:35:33;;;;;;;;;37.50;32.25;;;;;;;;4892429;28;4357320;-66
2022/03/24 11:37:58;;;;;;;;;43.00;36.25;;;;;;;;5041082;28;9427;-68
2022/03/24 11:40:25;;;;;;;;;41.25;35.00;;;;;;;;5044674;28;10690;-68
2022/03/24 11:43:09;;;;;;;;;39.50;32.25;;;;;;;;5043582;28;8781;-67
2022/03/24 11:45:38;;;;;;;;;34.00;31.50;;;;;;;;5055563;28;10515;-65
2022/03/24 11:48:08;;;;;;;;;30.00;29.75;;;;;;;;5029496;28;10327;-65
2022/03/24 11:50:47;;;;;;;;;21.00;21.00;;;;;;;;5030930;28;10361;-65
2022/03/24 11:53:17;;;;;;;;;30.50;28.75;;;;;;;;5034891;28;9987;-61
2022/03/24 11:56:04;;;;;;;;;30.50;29.50;;;;;;;;5034302;28;10847;-61
2022/03/24 11:58:31;;;;;;;;;28.00;25.50;;;;;;;;5033161;28;10200;-60
2022/03/24 12:01:10;;;;;;;;;31.25;30.00;;;;;;;;5037009;28;9849;-59
2022/03/24 12:03:42;;;;;;;;;28.00;24.25;;;;;;;;5043029;28;10167;-61
2022/03/24 12:06:08;;;;;;;;;30.75;29.00;;;;;;;;5044478;28;10007;-60
2022/03/24 12:08:46;;;;;;;;;33.75;31.50;;;;;;;;5049270;28;9992;-60
2022/03/24 12:11:31;;;;;;;;;26.67;25.33;;;;;;;;4701210;28;8708948;-61
2022/03/24 12:13:56;;;;;;;;;36.75;32.25;;;;;;;;4288173;28;11560430;-61
2022/03/24 12:16:23;;;;;;;;;39.25;32.75;;;;;;;;4888386;28;4357935;-61
2022/03/24 12:18:49;;;;;;;;;34.00;31.75;;;;;;;;5048418;28;8800;-60
2022/03/24 12:21:20;;;;;;;;;38.50;32.00;;;;;;;;5049170;28;10340;-60
2022/03/24 12:24:03;;;;;;;;;34.25;30.75;;;;;;;;5044790;28;8836;-60
2022/03/24 12:26:30;;;;;;;;;39.00;34.00;;;;;;;;5045071;28;10276;-61
2022/03/24 12:29:10;;;;;;;;;35.00;31.00;;;;;;;;5042766;28;10334;-60
2022/03/24 12:31:56;;;;;;;;;32.00;28.25;;;;;;;;5047011;28;10362;-60
2022/03/24 12:34:22;;;;;;;;;37.25;32.00;;;;;;;;5041507;28;10166;-60
2022/03/24 12:36:47;;;;;;;;;35.25;31.25;;;;;;;;5050994;28;10164;-60
2022/03/24 12:39:28;;;;;;;;;37.50;33.00;;;;;;;;5059437;28;8812;-61
2022/03/24 12:42:06;;;;;;;;;34.00;30.00;;;;;;;;4743044;28;8859490;-61
2022/03/24 12:44:49;;;;;;;;;35.25;32.50;;;;;;;;4747187;28;8708142;-61
2022/03/24 12:47:34;;;;;;;;;31.25;30.00;;;;;;;;5043565;28;8904;-61
2022/03/24 12:50:06;;;;;;;;;39.50;33.25;;;;;;;;5038972;28;11308;-61
2022/03/24 12:52:50;;;;;;;;;32.50;30.50;;;;;;;;4899573;28;4357482;-61
2022/03/24 12:55:21;;;;;;;;;30.75;27.50;;;;;;;;5050928;28;8820;-62
2022/03/24 12:57:58;;;;;;;;;31.00;29.25;;;;;;;;5051659;28;10044;-61
2022/03/24 13:00:29;;;;;;;;;39.50;34.50;;;;;;;;4778155;28;7032749;-62
2022/03/24 13:02:54;;;;;;;;;31.60;28.80;;;;;;;;4248974;28;20861480;-65
2022/03/24 13:05:30;;;;;;;;;30.80;30.20;;;;;;;;4895162;28;1139546;-61
2022/03/24 13:07:56;;;;;;;;;34.75;31.25;;;;;;;;4966419;28;1138293;-61
2022/03/24 13:10:23;;;;;;;;;37.00;31.75;;;;;;;;5040886;28;31793;-60
2022/03/24 13:12:49;;;;;;;;;29.00;27.00;;;;;;;;5035190;28;32108;-61
2022/03/24 13:15:18;;;;;;;;;33.25;31.25;;;;;;;;5030912;28;45819;-61
2022/03/24 13:17:48;;;;;;;;;31.75;29.75;;;;;;;;5028694;28;31897;-61
2022/03/24 13:20:13;;;;;;;;;33.50;31.25;;;;;;;;5032964;28;42275;-63
2022/03/24 13:22:39;;;;;;;;;32.25;31.25;;;;;;;;5025686;28;51272;-61
2022/03/24 13:25:08;;;;;;;;;32.75;31.25;;;;;;;;5041016;28;51149;-61
2022/03/24 13:27:38;;;;;;;;;43.25;32.50;;;;;;;;5012227;28;51070;-61
2022/03/24 13:30:07;;;;;;;;;35.00;32.25;;;;;;;;5013287;28;51117;-61
2022/03/24 13:32:33;;;;;;;;;33.00;30.50;;;;;;;;5009931;28;52620;-61
2022/03/24 13:35:01;;;;;;;;;35.75;31.00;;;;;;;;5011842;28;51236;-61
2022/03/24 13:37:52;;;;;;;;;31.50;29.25;;;;;;;;5003671;28;51307;-62
2022/03/24 13:40:19;;;;;;;;;31.50;30.75;;;;;;;;5026942;28;51274;-61
2022/03/24 13:42:45;;;;;;;;;33.75;30.50;;;;;;;;5031536;28;50981;-61
2022/03/24 13:45:11;;;;;;;;;35.25;31.25;;;;;;;;5011758;28;51010;-61
2022/03/24 13:47:41;;;;;;;;;32.75;30.50;;;;;;;;5012751;28;51127;-61
2022/03/24 13:50:07;;;;;;;;;32.75;30.25;;;;;;;;5013588;28;51261;-62
2022/03/24 13:52:34;;;;;;;;;29.00;27.75;;;;;;;;5012450;28;52092;-61
2022/03/24 13:55:04;;;;;;;;;31.75;30.00;;;;;;;;5013394;28;50882;-61
2022/03/24 13:57:29;;;;;;;;;32.00;28.25;;;;;;;;5012837;28;51210;-61
2022/03/24 13:59:54;;;;;;;;;31.75;30.25;;;;;;;;5013477;28;51313;-61
2022/03/24 14:02:27;;;;;;;;;34.50;30.50;;;;;;;;5008856;28;51979;-61
2022/03/24 14:05:07;;;;;;;;;34.00;31.50;;;;;;;;5012034;28;51104;-62
2022/03/24 14:07:32;;;;;;;;;31.50;29.00;;;;;;;;5012919;28;51216;-60
2022/03/24 14:09:58;;;;;;;;;29.25;27.75;;;;;;;;5012831;28;52935;-61
2022/03/24 14:12:25;;;;;;;;;32.75;29.75;;;;;;;;5012621;28;51290;-60
2022/03/24 14:14:50;;;;;;;;;29.75;29.50;;;;;;;;5011557;28;51850;-60
2022/03/24 14:17:21;;;;;;;;;32.50;30.50;;;;;;;;5007731;28;51958;-61
2022/03/24 14:19:56;;;;;;;;;34.50;32.25;;;;;;;;5012723;28;51153;-61
2022/03/24 14:22:24;;;;;;;;;35.25;32.50;;;;;;;;5012293;28;50956;-61
2022/03/24 14:24:50;;;;;;;;;36.75;32.75;;;;;;;;5012865;28;50907;-61
2022/03/24 14:27:22;;;;;;;;;34.50;31.25;;;;;;;;5010473;28;51100;-61